sensor_id;sensor_type;location;lat;lon;timestamp;P1;durP1;ratioP1;P2;durP2;ratioP2
14326;SDS011;7247;53.330;-1.180;2022-07-18T00:00:52;4.80;;;3.03;;
14326;SDS011;7247;53.330;-1.180;2022-07-18T00:03:18;7.00;;;3.40;;
14326;SDS011;7247;53.330;-1.180;2022-07-18T00:05:46;4.23;;;3.13;;
14326;SDS011;7247;53.330;-1.180;2022-07-18T00:08:13;3.93;;;3.23;;
14326;SDS011;7247;53.330;-1.180;2022-07-18T00:10:39;5.47;;;3.90;;
14326;SDS011;7247;53.330;-1.180;2022-07-18T00:13:07;5.03;;;3.97;;
14326;SDS011;7247;53.330;-1.180;2022-07-18T00:15:37;7.37;;;3.93;;
14326;SDS011;7247;53.330;-1.180;2022-07-18T00:18:04;6.77;;;3.90;;
14326;SDS011;7247;53.330;-1.180;2022-07-18T00:20:30;7.37;;;3.87;;
14326;SDS011;7247;53.330;-1.180;2022-07-18T00:22:57;5.80;;;3.90;;
14326;SDS011;7247;53.330;-1.180;2022-07-18T00:25:25;6.40;;;3.90;;
14326;SDS011;7247;53.330;-1.180;2022-07-18T00:27:52;6.37;;;4.27;;
14326;SDS011;7247;53.330;-1.180;2022-07-18T00:30:20;4.63;;;4.23;;
14326;SDS011;7247;53.330;-1.180;2022-07-18T00:32:47;4.63;;;4.13;;
14326;SDS011;7247;53.330;-1.180;2022-07-18T00:35:13;6.33;;;4.40;;
14326;SDS011;7247;53.330;-1.180;2022-07-18T00:37:40;5.83;;;4.20;;
14326;SDS011;7247;53.330;-1.180;2022-07-18T00:40:07;4.70;;;4.30;;
14326;SDS011;7247;53.330;-1.180;2022-07-18T00:42:34;6.30;;;4.63;;
14326;SDS011;7247;53.330;-1.180;2022-07-18T00:45:02;7.90;;;4.30;;
14326;SDS011;7247;53.330;-1.180;2022-07-18T00:47:30;6.40;;;4.40;;
14326;SDS011;7247;53.330;-1.180;2022-07-18T00:49:56;5.37;;;4.30;;
14326;SDS011;7247;53.330;-1.180;2022-07-18T00:52:23;6.87;;;4.13;;
14326;SDS011;7247;53.330;-1.180;2022-07-18T00:54:50;7.13;;;4.43;;
14326;SDS011;7247;53.330;-1.180;2022-07-18T00:57:16;4.83;;;4.33;;
14326;SDS011;7247;53.330;-1.180;2022-07-18T00:59:43;5.30;;;4.60;;
14326;SDS011;7247;53.330;-1.180;2022-07-18T01:02:27;5.80;;;4.67;;
14326;SDS011;7247;53.330;-1.180;2022-07-18T01:04:55;7.90;;;4.60;;
14326;SDS011;7247;53.330;-1.180;2022-07-18T01:07:22;8.90;;;4.30;;
14326;SDS011;7247;53.330;-1.180;2022-07-18T01:09:49;8.13;;;4.67;;
14326;SDS011;7247;53.330;-1.180;2022-07-18T01:12:15;5.70;;;4.93;;
14326;SDS011;7247;53.330;-1.180;2022-07-18T01:14:42;5.63;;;5.03;;
14326;SDS011;7247;53.330;-1.180;2022-07-18T01:17:12;6.93;;;4.93;;
14326;SDS011;7247;53.330;-1.180;2022-07-18T01:19:39;8.50;;;5.23;;
14326;SDS011;7247;53.330;-1.180;2022-07-18T01:22:07;8.00;;;5.40;;
14326;SDS011;7247;53.330;-1.180;2022-07-18T01:24:34;6.20;;;5.43;;
14326;SDS011;7247;53.330;-1.180;2022-07-18T01:27:01;6.30;;;5.40;;
14326;SDS011;7247;53.330;-1.180;2022-07-18T01:29:27;7.30;;;5.63;;
14326;SDS011;7247;53.330;-1.180;2022-07-18T01:31:54;6.27;;;5.13;;
14326;SDS011;7247;53.330;-1.180;2022-07-18T01:34:21;7.13;;;5.87;;
14326;SDS011;7247;53.330;-1.180;2022-07-18T01:36:47;7.70;;;5.30;;
14326;SDS011;7247;53.330;-1.180;2022-07-18T01:39:15;6.93;;;5.50;;
14326;SDS011;7247;53.330;-1.180;2022-07-18T01:41:42;7.10;;;5.73;;
14326;SDS011;7247;53.330;-1.180;2022-07-18T01:44:08;6.33;;;5.37;;
14326;SDS011;7247;53.330;-1.180;2022-07-18T01:46:35;6.23;;;5.17;;
14326;SDS011;7247;53.330;-1.180;2022-07-18T01:49:01;8.67;;;5.87;;
14326;SDS011;7247;53.330;-1.180;2022-07-18T01:51:28;6.87;;;5.50;;
14326;SDS011;7247;53.330;-1.180;2022-07-18T01:53:55;6.53;;;5.73;;
14326;SDS011;7247;53.330;-1.180;2022-07-18T01:56:25;7.03;;;5.70;;
14326;SDS011;7247;53.330;-1.180;2022-07-18T01:58:51;6.87;;;6.00;;
14326;SDS011;7247;53.330;-1.180;2022-07-18T02:01:18;6.13;;;5.30;;
14326;SDS011;7247;53.330;-1.180;2022-07-18T02:03:44;6.67;;;5.40;;
14326;SDS011;7247;53.330;-1.180;2022-07-18T02:08:57;6.27;;;5.63;;
14326;SDS011;7247;53.330;-1.180;2022-07-18T02:11:25;6.80;;;5.50;;
14326;SDS011;7247;53.330;-1.180;2022-07-18T02:13:52;8.47;;;5.80;;
14326;SDS011;7247;53.330;-1.180;2022-07-18T02:16:19;7.57;;;6.00;;
14326;SDS011;7247;53.330;-1.180;2022-07-18T02:18:45;7.57;;;6.10;;
14326;SDS011;7247;53.330;-1.180;2022-07-18T02:21:12;6.73;;;5.80;;
14326;SDS011;7247;53.330;-1.180;2022-07-18T02:23:39;5.67;;;5.17;;
14326;SDS011;7247;53.330;-1.180;2022-07-18T02:26:07;6.20;;;5.57;;
14326;SDS011;7247;53.330;-1.180;2022-07-18T02:28:35;6.47;;;4.90;;
14326;SDS011;7247;53.330;-1.180;2022-07-18T02:31:02;5.97;;;5.37;;
14326;SDS011;7247;53.330;-1.180;2022-07-18T02:33:29;6.00;;;5.30;;
14326;SDS011;7247;53.330;-1.180;2022-07-18T02:35:56;6.23;;;5.60;;
14326;SDS011;7247;53.330;-1.180;2022-07-18T02:38:22;6.97;;;5.10;;
14326;SDS011;7247;53.330;-1.180;2022-07-18T02:40:49;7.13;;;5.23;;
14326;SDS011;7247;53.330;-1.180;2022-07-18T02:43:15;5.87;;;4.70;;
14326;SDS011;7247;53.330;-1.180;2022-07-18T02:45:44;6.10;;;5.50;;
14326;SDS011;7247;53.330;-1.180;2022-07-18T02:48:11;8.17;;;5.60;;
14326;SDS011;7247;53.330;-1.180;2022-07-18T02:50:38;6.40;;;5.20;;
14326;SDS011;7247;53.330;-1.180;2022-07-18T02:53:04;5.70;;;4.97;;
14326;SDS011;7247;53.330;-1.180;2022-07-18T02:55:33;6.93;;;5.63;;
14326;SDS011;7247;53.330;-1.180;2022-07-18T02:57:59;6.80;;;5.33;;
14326;SDS011;7247;53.330;-1.180;2022-07-18T03:00:26;8.07;;;5.27;;
14326;SDS011;7247;53.330;-1.180;2022-07-18T03:02:54;6.43;;;5.13;;
14326;SDS011;7247;53.330;-1.180;2022-07-18T03:05:20;7.70;;;5.73;;
14326;SDS011;7247;53.330;-1.180;2022-07-18T03:07:47;5.97;;;5.40;;
14326;SDS011;7247;53.330;-1.180;2022-07-18T03:10:13;7.77;;;5.63;;
14326;SDS011;7247;53.330;-1.180;2022-07-18T03:12:40;7.83;;;5.70;;
14326;SDS011;7247;53.330;-1.180;2022-07-18T03:15:08;6.20;;;5.60;;
14326;SDS011;7247;53.330;-1.180;2022-07-18T03:17:34;7.90;;;5.50;;
14326;SDS011;7247;53.330;-1.180;2022-07-18T03:20:03;6.80;;;5.40;;
14326;SDS011;7247;53.330;-1.180;2022-07-18T03:22:30;7.30;;;5.47;;
14326;SDS011;7247;53.330;-1.180;2022-07-18T03:25:00;5.37;;;4.87;;
14326;SDS011;7247;53.330;-1.180;2022-07-18T03:27:27;6.37;;;5.40;;
14326;SDS011;7247;53.330;-1.180;2022-07-18T03:29:53;8.33;;;5.70;;
14326;SDS011;7247;53.330;-1.180;2022-07-18T03:32:20;6.43;;;5.10;;
14326;SDS011;7247;53.330;-1.180;2022-07-18T03:34:48;6.77;;;5.47;;
14326;SDS011;7247;53.330;-1.180;2022-07-18T03:37:15;6.17;;;5.60;;
14326;SDS011;7247;53.330;-1.180;2022-07-18T03:39:42;7.27;;;5.33;;
14326;SDS011;7247;53.330;-1.180;2022-07-18T03:42:08;7.47;;;5.70;;
14326;SDS011;7247;53.330;-1.180;2022-07-18T03:44:37;5.80;;;5.23;;
14326;SDS011;7247;53.330;-1.180;2022-07-18T03:47:04;6.03;;;4.97;;
14326;SDS011;7247;53.330;-1.180;2022-07-18T03:49:30;6.10;;;5.20;;
14326;SDS011;7247;53.330;-1.180;2022-07-18T03:51:57;6.37;;;5.70;;
14326;SDS011;7247;53.330;-1.180;2022-07-18T03:54:26;6.13;;;5.23;;
14326;SDS011;7247;53.330;-1.180;2022-07-18T03:56:52;7.47;;;5.00;;
14326;SDS011;7247;53.330;-1.180;2022-07-18T03:59:19;6.10;;;4.90;;
14326;SDS011;7247;53.330;-1.180;2022-07-18T04:01:46;5.80;;;5.17;;
14326;SDS011;7247;53.330;-1.180;2022-07-18T04:04:12;7.20;;;5.00;;
14326;SDS011;7247;53.330;-1.180;2022-07-18T04:06:39;5.37;;;4.83;;
14326;SDS011;7247;53.330;-1.180;2022-07-18T04:09:06;6.00;;;5.27;;
14326;SDS011;7247;53.330;-1.180;2022-07-18T04:11:33;6.73;;;5.07;;
14326;SDS011;7247;53.330;-1.180;2022-07-18T04:14:00;6.93;;;5.67;;
14326;SDS011;7247;53.330;-1.180;2022-07-18T04:16:27;7.37;;;5.70;;
14326;SDS011;7247;53.330;-1.180;2022-07-18T04:18:53;6.93;;;5.20;;
14326;SDS011;7247;53.330;-1.180;2022-07-18T04:21:20;7.47;;;5.60;;
14326;SDS011;7247;53.330;-1.180;2022-07-18T04:23:46;6.10;;;5.27;;
14326;SDS011;7247;53.330;-1.180;2022-07-18T04:29:00;7.37;;;5.70;;
14326;SDS011;7247;53.330;-1.180;2022-07-18T04:31:27;5.93;;;5.27;;
14326;SDS011;7247;53.330;-1.180;2022-07-18T04:33:54;6.53;;;5.47;;
14326;SDS011;7247;53.330;-1.180;2022-07-18T04:36:23;6.87;;;5.60;;
14326;SDS011;7247;53.330;-1.180;2022-07-18T04:38:50;7.57;;;5.23;;
14326;SDS011;7247;53.330;-1.180;2022-07-18T04:41:17;8.63;;;5.10;;
14326;SDS011;7247;53.330;-1.180;2022-07-18T04:43:47;8.87;;;5.67;;
14326;SDS011;7247;53.330;-1.180;2022-07-18T04:46:15;6.93;;;5.47;;
14326;SDS011;7247;53.330;-1.180;2022-07-18T04:48:42;5.43;;;4.93;;
14326;SDS011;7247;53.330;-1.180;2022-07-18T04:51:08;7.53;;;5.40;;
14326;SDS011;7247;53.330;-1.180;2022-07-18T04:53:35;7.17;;;5.10;;
14326;SDS011;7247;53.330;-1.180;2022-07-18T04:56:01;6.87;;;6.03;;
14326;SDS011;7247;53.330;-1.180;2022-07-18T04:58:28;5.93;;;5.33;;
14326;SDS011;7247;53.330;-1.180;2022-07-18T05:00:54;7.00;;;5.60;;
14326;SDS011;7247;53.330;-1.180;2022-07-18T05:03:23;7.67;;;5.90;;
14326;SDS011;7247;53.330;-1.180;2022-07-18T05:05:49;7.10;;;5.87;;
14326;SDS011;7247;53.330;-1.180;2022-07-18T05:08:16;7.13;;;6.33;;
14326;SDS011;7247;53.330;-1.180;2022-07-18T05:10:43;7.77;;;6.03;;
14326;SDS011;7247;53.330;-1.180;2022-07-18T05:13:10;8.17;;;6.23;;
14326;SDS011;7247;53.330;-1.180;2022-07-18T05:15:36;9.80;;;6.53;;
14326;SDS011;7247;53.330;-1.180;2022-07-18T05:18:03;7.20;;;6.50;;
14326;SDS011;7247;53.330;-1.180;2022-07-18T05:20:31;7.73;;;6.13;;
14326;SDS011;7247;53.330;-1.180;2022-07-18T05:22:57;8.57;;;6.00;;
14326;SDS011;7247;53.330;-1.180;2022-07-18T05:25:25;8.73;;;6.40;;
14326;SDS011;7247;53.330;-1.180;2022-07-18T05:27:52;7.27;;;5.77;;
14326;SDS011;7247;53.330;-1.180;2022-07-18T05:30:19;10.20;;;6.80;;
14326;SDS011;7247;53.330;-1.180;2022-07-18T05:32:46;8.67;;;6.33;;
14326;SDS011;7247;53.330;-1.180;2022-07-18T05:37:43;10.40;;;6.50;;
14326;SDS011;7247;53.330;-1.180;2022-07-18T05:40:12;7.90;;;5.97;;
14326;SDS011;7247;53.330;-1.180;2022-07-18T05:42:39;9.90;;;6.40;;
14326;SDS011;7247;53.330;-1.180;2022-07-18T05:45:06;8.80;;;6.30;;
14326;SDS011;7247;53.330;-1.180;2022-07-18T05:47:33;10.87;;;6.57;;
14326;SDS011;7247;53.330;-1.180;2022-07-18T05:49:59;10.87;;;6.33;;
14326;SDS011;7247;53.330;-1.180;2022-07-18T05:52:26;8.30;;;6.20;;
14326;SDS011;7247;53.330;-1.180;2022-07-18T05:54:54;9.40;;;6.23;;
14326;SDS011;7247;53.330;-1.180;2022-07-18T05:57:21;9.07;;;6.47;;
14326;SDS011;7247;53.330;-1.180;2022-07-18T05:59:47;7.97;;;6.20;;
14326;SDS011;7247;53.330;-1.180;2022-07-18T06:02:14;11.33;;;6.93;;
14326;SDS011;7247;53.330;-1.180;2022-07-18T06:04:42;9.90;;;6.53;;
14326;SDS011;7247;53.330;-1.180;2022-07-18T06:07:08;8.00;;;6.20;;
14326;SDS011;7247;53.330;-1.180;2022-07-18T06:09:35;10.03;;;6.27;;
14326;SDS011;7247;53.330;-1.180;2022-07-18T06:12:04;10.53;;;6.00;;
14326;SDS011;7247;53.330;-1.180;2022-07-18T06:14:31;8.17;;;6.53;;
14326;SDS011;7247;53.330;-1.180;2022-07-18T06:16:57;10.00;;;6.00;;
14326;SDS011;7247;53.330;-1.180;2022-07-18T06:19:24;8.80;;;6.20;;
14326;SDS011;7247;53.330;-1.180;2022-07-18T06:21:51;8.07;;;5.87;;
14326;SDS011;7247;53.330;-1.180;2022-07-18T06:24:18;7.57;;;6.03;;
14326;SDS011;7247;53.330;-1.180;2022-07-18T06:26:44;7.77;;;6.03;;
14326;SDS011;7247;53.330;-1.180;2022-07-18T06:29:12;7.63;;;5.83;;
14326;SDS011;7247;53.330;-1.180;2022-07-18T06:31:39;7.20;;;5.80;;
14326;SDS011;7247;53.330;-1.180;2022-07-18T06:34:05;8.67;;;5.73;;
14326;SDS011;7247;53.330;-1.180;2022-07-18T06:36:32;7.00;;;5.80;;
14326;SDS011;7247;53.330;-1.180;2022-07-18T06:38:58;8.03;;;5.33;;
14326;SDS011;7247;53.330;-1.180;2022-07-18T06:41:25;7.47;;;6.00;;
14326;SDS011;7247;53.330;-1.180;2022-07-18T06:43:51;7.03;;;5.50;;
14326;SDS011;7247;53.330;-1.180;2022-07-18T06:46:19;9.87;;;6.03;;
14326;SDS011;7247;53.330;-1.180;2022-07-18T06:48:46;6.50;;;5.50;;
14326;SDS011;7247;53.330;-1.180;2022-07-18T06:51:13;8.13;;;5.87;;
14326;SDS011;7247;53.330;-1.180;2022-07-18T06:53:39;7.77;;;6.30;;
14326;SDS011;7247;53.330;-1.180;2022-07-18T06:56:06;10.17;;;6.33;;
14326;SDS011;7247;53.330;-1.180;2022-07-18T06:58:33;8.53;;;6.07;;
14326;SDS011;7247;53.330;-1.180;2022-07-18T07:00:59;8.93;;;6.20;;
14326;SDS011;7247;53.330;-1.180;2022-07-18T07:03:27;8.53;;;6.10;;
14326;SDS011;7247;53.330;-1.180;2022-07-18T07:05:55;7.10;;;5.50;;
14326;SDS011;7247;53.330;-1.180;2022-07-18T07:08:22;8.70;;;6.60;;
14326;SDS011;7247;53.330;-1.180;2022-07-18T07:10:48;7.13;;;6.00;;
14326;SDS011;7247;53.330;-1.180;2022-07-18T07:13:15;8.53;;;6.23;;
14326;SDS011;7247;53.330;-1.180;2022-07-18T07:15:41;10.33;;;5.87;;
14326;SDS011;7247;53.330;-1.180;2022-07-18T07:18:08;8.50;;;6.03;;
14326;SDS011;7247;53.330;-1.180;2022-07-18T07:20:36;7.43;;;5.57;;
14326;SDS011;7247;53.330;-1.180;2022-07-18T07:23:03;9.40;;;6.00;;
14326;SDS011;7247;53.330;-1.180;2022-07-18T07:25:32;11.33;;;6.10;;
14326;SDS011;7247;53.330;-1.180;2022-07-18T07:27:59;9.27;;;6.20;;
14326;SDS011;7247;53.330;-1.180;2022-07-18T07:30:25;9.47;;;6.43;;
14326;SDS011;7247;53.330;-1.180;2022-07-18T07:32:52;7.33;;;6.17;;
14326;SDS011;7247;53.330;-1.180;2022-07-18T07:35:19;10.57;;;5.77;;
14326;SDS011;7247;53.330;-1.180;2022-07-18T07:37:49;9.90;;;5.73;;
14326;SDS011;7247;53.330;-1.180;2022-07-18T07:40:16;7.97;;;5.77;;
14326;SDS011;7247;53.330;-1.180;2022-07-18T07:42:42;10.53;;;5.70;;
14326;SDS011;7247;53.330;-1.180;2022-07-18T07:45:10;7.27;;;5.87;;
14326;SDS011;7247;53.330;-1.180;2022-07-18T07:47:36;8.57;;;6.47;;
14326;SDS011;7247;53.330;-1.180;2022-07-18T07:50:04;6.67;;;5.97;;
14326;SDS011;7247;53.330;-1.180;2022-07-18T07:52:31;10.13;;;5.80;;
14326;SDS011;7247;53.330;-1.180;2022-07-18T07:54:59;8.70;;;5.70;;
14326;SDS011;7247;53.330;-1.180;2022-07-18T07:57:26;10.50;;;5.97;;
14326;SDS011;7247;53.330;-1.180;2022-07-18T07:59:52;7.47;;;5.87;;
14326;SDS011;7247;53.330;-1.180;2022-07-18T08:02:19;9.53;;;5.77;;
14326;SDS011;7247;53.330;-1.180;2022-07-18T08:04:46;7.50;;;5.60;;
14326;SDS011;7247;53.330;-1.180;2022-07-18T08:07:12;13.90;;;5.50;;
14326;SDS011;7247;53.330;-1.180;2022-07-18T08:09:39;6.00;;;5.40;;
14326;SDS011;7247;53.330;-1.180;2022-07-18T08:12:07;8.10;;;5.07;;
14326;SDS011;7247;53.330;-1.180;2022-07-18T08:14:34;6.57;;;5.03;;
14326;SDS011;7247;53.330;-1.180;2022-07-18T08:17:03;6.87;;;4.70;;
14326;SDS011;7247;53.330;-1.180;2022-07-18T08:19:29;5.57;;;4.93;;
14326;SDS011;7247;53.330;-1.180;2022-07-18T08:21:56;4.93;;;4.22;;
14326;SDS011;7247;53.330;-1.180;2022-07-18T08:24:23;6.80;;;4.32;;
14326;SDS011;7247;53.330;-1.180;2022-07-18T08:26:49;5.32;;;4.30;;
14326;SDS011;7247;53.330;-1.180;2022-07-18T08:29:17;4.43;;;3.90;;
14326;SDS011;7247;53.330;-1.180;2022-07-18T08:31:44;6.05;;;4.78;;
14326;SDS011;7247;53.330;-1.180;2022-07-18T08:34:10;4.70;;;4.30;;
14326;SDS011;7247;53.330;-1.180;2022-07-18T08:36:37;6.57;;;4.20;;
14326;SDS011;7247;53.330;-1.180;2022-07-18T08:39:04;5.95;;;4.55;;
14326;SDS011;7247;53.330;-1.180;2022-07-18T08:41:30;6.55;;;4.50;;
14326;SDS011;7247;53.330;-1.180;2022-07-18T08:43:57;4.97;;;4.38;;
14326;SDS011;7247;53.330;-1.180;2022-07-18T08:46:25;7.70;;;4.00;;
14326;SDS011;7247;53.330;-1.180;2022-07-18T08:48:52;5.45;;;4.10;;
14326;SDS011;7247;53.330;-1.180;2022-07-18T08:51:20;6.78;;;4.65;;
14326;SDS011;7247;53.330;-1.180;2022-07-18T08:53:47;4.57;;;4.18;;
14326;SDS011;7247;53.330;-1.180;2022-07-18T08:56:16;5.82;;;4.43;;
14326;SDS011;7247;53.330;-1.180;2022-07-18T08:58:43;4.90;;;4.40;;
14326;SDS011;7247;53.330;-1.180;2022-07-18T09:01:09;5.75;;;4.40;;
14326;SDS011;7247;53.330;-1.180;2022-07-18T09:03:37;9.02;;;4.28;;
14326;SDS011;7247;53.330;-1.180;2022-07-18T09:06:05;4.68;;;4.28;;
14326;SDS011;7247;53.330;-1.180;2022-07-18T09:08:32;4.63;;;4.20;;
14326;SDS011;7247;53.330;-1.180;2022-07-18T09:10:59;4.85;;;3.80;;
14326;SDS011;7247;53.330;-1.180;2022-07-18T09:13:29;4.50;;;3.65;;
14326;SDS011;7247;53.330;-1.180;2022-07-18T09:16:03;3.88;;;3.53;;
14326;SDS011;7247;53.330;-1.180;2022-07-18T09:18:30;4.28;;;3.88;;
14326;SDS011;7247;53.330;-1.180;2022-07-18T09:20:58;4.65;;;4.07;;
14326;SDS011;7247;53.330;-1.180;2022-07-18T09:23:26;4.28;;;3.88;;
14326;SDS011;7247;53.330;-1.180;2022-07-18T09:25:53;5.07;;;4.10;;
14326;SDS011;7247;53.330;-1.180;2022-07-18T09:28:20;6.97;;;3.80;;
14326;SDS011;7247;53.330;-1.180;2022-07-18T09:30:46;4.15;;;3.78;;
14326;SDS011;7247;53.330;-1.180;2022-07-18T09:33:13;4.30;;;3.85;;
14326;SDS011;7247;53.330;-1.180;2022-07-18T09:35:42;4.93;;;3.90;;
14326;SDS011;7247;53.330;-1.180;2022-07-18T09:38:10;4.40;;;4.00;;
14326;SDS011;7247;53.330;-1.180;2022-07-18T09:40:37;4.35;;;3.92;;
14326;SDS011;7247;53.330;-1.180;2022-07-18T09:43:04;5.75;;;4.07;;
14326;SDS011;7247;53.330;-1.180;2022-07-18T09:45:31;4.47;;;4.07;;
14326;SDS011;7247;53.330;-1.180;2022-07-18T09:47:59;5.45;;;4.28;;
14326;SDS011;7247;53.330;-1.180;2022-07-18T09:50:30;4.65;;;3.90;;
14326;SDS011;7247;53.330;-1.180;2022-07-18T09:53:04;4.10;;;3.80;;
14326;SDS011;7247;53.330;-1.180;2022-07-18T09:55:33;5.43;;;3.90;;
14326;SDS011;7247;53.330;-1.180;2022-07-18T09:58:01;4.72;;;4.32;;
14326;SDS011;7247;53.330;-1.180;2022-07-18T10:00:29;4.68;;;4.25;;
14326;SDS011;7247;53.330;-1.180;2022-07-18T10:02:56;4.45;;;4.10;;
14326;SDS011;7247;53.330;-1.180;2022-07-18T10:05:26;4.40;;;4.00;;
14326;SDS011;7247;53.330;-1.180;2022-07-18T10:07:52;4.75;;;4.20;;
14326;SDS011;7247;53.330;-1.180;2022-07-18T10:10:19;4.40;;;4.00;;
14326;SDS011;7247;53.330;-1.180;2022-07-18T10:12:47;4.90;;;4.40;;
14326;SDS011;7247;53.330;-1.180;2022-07-18T10:15:16;4.43;;;3.70;;
14326;SDS011;7247;53.330;-1.180;2022-07-18T10:17:42;4.45;;;3.83;;
14326;SDS011;7247;53.330;-1.180;2022-07-18T10:20:09;4.70;;;4.13;;
14326;SDS011;7247;53.330;-1.180;2022-07-18T10:22:36;5.15;;;4.32;;
14326;SDS011;7247;53.330;-1.180;2022-07-18T10:25:07;7.95;;;4.70;;
14326;SDS011;7247;53.330;-1.180;2022-07-18T10:30:17;5.15;;;4.20;;
14326;SDS011;7247;53.330;-1.180;2022-07-18T10:32:44;5.53;;;4.18;;
14326;SDS011;7247;53.330;-1.180;2022-07-18T10:35:11;6.45;;;4.18;;
14326;SDS011;7247;53.330;-1.180;2022-07-18T10:37:41;4.72;;;4.32;;
14326;SDS011;7247;53.330;-1.180;2022-07-18T10:40:24;9.65;;;4.60;;
14326;SDS011;7247;53.330;-1.180;2022-07-18T10:45:44;4.75;;;3.88;;
14326;SDS011;7247;53.330;-1.180;2022-07-18T10:50:59;4.10;;;3.60;;
14326;SDS011;7247;53.330;-1.180;2022-07-18T10:53:40;6.28;;;4.57;;
14326;SDS011;7247;53.330;-1.180;2022-07-18T10:56:22;4.93;;;4.50;;
14326;SDS011;7247;53.330;-1.180;2022-07-18T10:59:14;4.93;;;4.43;;
14326;SDS011;7247;53.330;-1.180;2022-07-18T11:01:46;4.70;;;4.30;;
14326;SDS011;7247;53.330;-1.180;2022-07-18T11:04:22;4.70;;;4.30;;
14326;SDS011;7247;53.330;-1.180;2022-07-18T11:06:53;6.20;;;3.95;;
14326;SDS011;7247;53.330;-1.180;2022-07-18T11:09:29;4.13;;;3.80;;
14326;SDS011;7247;53.330;-1.180;2022-07-18T11:14:58;7.00;;;4.07;;
14326;SDS011;7247;53.330;-1.180;2022-07-18T11:20:23;5.03;;;4.45;;
14326;SDS011;7247;53.330;-1.180;2022-07-18T11:22:50;4.30;;;4.00;;
14326;SDS011;7247;53.330;-1.180;2022-07-18T11:25:17;5.60;;;3.83;;
14326;SDS011;7247;53.330;-1.180;2022-07-18T11:27:43;4.22;;;3.80;;
14326;SDS011;7247;53.330;-1.180;2022-07-18T11:30:10;4.03;;;3.72;;
14326;SDS011;7247;53.330;-1.180;2022-07-18T11:32:42;4.72;;;3.80;;
14326;SDS011;7247;53.330;-1.180;2022-07-18T11:35:08;4.82;;;4.10;;
14326;SDS011;7247;53.330;-1.180;2022-07-18T11:37:37;4.75;;;4.38;;
14326;SDS011;7247;53.330;-1.180;2022-07-18T11:40:04;4.43;;;3.60;;
14326;SDS011;7247;53.330;-1.180;2022-07-18T11:42:35;4.15;;;3.80;;
14326;SDS011;7247;53.330;-1.180;2022-07-18T11:45:02;4.32;;;4.03;;
14326;SDS011;7247;53.330;-1.180;2022-07-18T11:47:29;10.18;;;3.88;;
14326;SDS011;7247;53.330;-1.180;2022-07-18T11:49:55;4.63;;;3.97;;
14326;SDS011;7247;53.330;-1.180;2022-07-18T11:52:23;4.43;;;3.80;;
14326;SDS011;7247;53.330;-1.180;2022-07-18T11:54:51;4.28;;;3.88;;
14326;SDS011;7247;53.330;-1.180;2022-07-18T11:57:25;6.10;;;4.18;;
14326;SDS011;7247;53.330;-1.180;2022-07-18T11:59:52;4.75;;;3.92;;
14326;SDS011;7247;53.330;-1.180;2022-07-18T12:02:18;4.05;;;3.67;;
14326;SDS011;7247;53.330;-1.180;2022-07-18T12:04:45;4.15;;;3.50;;
14326;SDS011;7247;53.330;-1.180;2022-07-18T12:07:16;3.75;;;3.45;;
14326;SDS011;7247;53.330;-1.180;2022-07-18T12:09:43;4.03;;;3.60;;
14326;SDS011;7247;53.330;-1.180;2022-07-18T12:12:12;3.92;;;3.55;;
14326;SDS011;7247;53.330;-1.180;2022-07-18T12:14:39;3.90;;;3.50;;
14326;SDS011;7247;53.330;-1.180;2022-07-18T12:17:06;4.00;;;3.60;;
14326;SDS011;7247;53.330;-1.180;2022-07-18T12:19:35;5.97;;;3.58;;
14326;SDS011;7247;53.330;-1.180;2022-07-18T12:22:06;3.75;;;3.22;;
14326;SDS011;7247;53.330;-1.180;2022-07-18T12:24:33;4.40;;;3.17;;
14326;SDS011;7247;53.330;-1.180;2022-07-18T12:27:07;3.40;;;3.10;;
14326;SDS011;7247;53.330;-1.180;2022-07-18T12:32:17;3.70;;;3.40;;
14326;SDS011;7247;53.330;-1.180;2022-07-18T12:34:53;3.65;;;3.35;;
14326;SDS011;7247;53.330;-1.180;2022-07-18T12:37:22;3.72;;;3.42;;
14326;SDS011;7247;53.330;-1.180;2022-07-18T12:39:49;3.92;;;3.53;;
14326;SDS011;7247;53.330;-1.180;2022-07-18T12:42:26;3.45;;;3.25;;
14326;SDS011;7247;53.330;-1.180;2022-07-18T12:44:53;3.67;;;3.38;;
14326;SDS011;7247;53.330;-1.180;2022-07-18T12:47:21;3.75;;;3.38;;
14326;SDS011;7247;53.330;-1.180;2022-07-18T12:49:48;3.22;;;2.92;;
14326;SDS011;7247;53.330;-1.180;2022-07-18T12:52:15;3.53;;;3.22;;
14326;SDS011;7247;53.330;-1.180;2022-07-18T12:54:41;4.00;;;3.20;;
14326;SDS011;7247;53.330;-1.180;2022-07-18T12:57:08;3.60;;;3.30;;
14326;SDS011;7247;53.330;-1.180;2022-07-18T12:59:34;3.83;;;3.30;;
14326;SDS011;7247;53.330;-1.180;2022-07-18T13:02:01;4.90;;;3.05;;
14326;SDS011;7247;53.330;-1.180;2022-07-18T13:04:30;3.92;;;3.40;;
14326;SDS011;7247;53.330;-1.180;2022-07-18T13:06:56;3.65;;;3.35;;
14326;SDS011;7247;53.330;-1.180;2022-07-18T13:09:23;3.70;;;3.40;;
14326;SDS011;7247;53.330;-1.180;2022-07-18T13:11:49;4.00;;;3.45;;
14326;SDS011;7247;53.330;-1.180;2022-07-18T13:14:16;3.80;;;3.25;;
14326;SDS011;7247;53.330;-1.180;2022-07-18T13:16:43;3.65;;;3.22;;
14326;SDS011;7247;53.330;-1.180;2022-07-18T13:19:10;3.40;;;3.10;;
14326;SDS011;7247;53.330;-1.180;2022-07-18T13:21:39;3.53;;;3.33;;
14326;SDS011;7247;53.330;-1.180;2022-07-18T13:24:06;4.63;;;3.50;;
14326;SDS011;7247;53.330;-1.180;2022-07-18T13:26:33;4.00;;;3.70;;
14326;SDS011;7247;53.330;-1.180;2022-07-18T13:28:59;3.78;;;3.47;;
14326;SDS011;7247;53.330;-1.180;2022-07-18T13:31:27;3.80;;;3.50;;
14326;SDS011;7247;53.330;-1.180;2022-07-18T13:33:53;4.07;;;3.67;;
14326;SDS011;7247;53.330;-1.180;2022-07-18T13:36:22;3.80;;;3.50;;
14326;SDS011;7247;53.330;-1.180;2022-07-18T13:38:50;4.10;;;3.53;;
14326;SDS011;7247;53.330;-1.180;2022-07-18T13:41:16;5.05;;;3.22;;
14326;SDS011;7247;53.330;-1.180;2022-07-18T13:43:43;4.40;;;3.40;;
14326;SDS011;7247;53.330;-1.180;2022-07-18T13:46:11;5.72;;;3.47;;
14326;SDS011;7247;53.330;-1.180;2022-07-18T13:48:37;5.03;;;4.45;;
14326;SDS011;7247;53.330;-1.180;2022-07-18T13:51:05;6.78;;;4.95;;
14326;SDS011;7247;53.330;-1.180;2022-07-18T13:53:31;5.85;;;5.35;;
14326;SDS011;7247;53.330;-1.180;2022-07-18T13:55:59;9.60;;;8.77;;
14326;SDS011;7247;53.330;-1.180;2022-07-18T13:58:26;11.88;;;11.00;;
14326;SDS011;7247;53.330;-1.180;2022-07-18T14:00:52;11.23;;;10.40;;
14326;SDS011;7247;53.330;-1.180;2022-07-18T14:03:19;9.02;;;8.27;;
14326;SDS011;7247;53.330;-1.180;2022-07-18T14:05:45;7.28;;;6.78;;
14326;SDS011;7247;53.330;-1.180;2022-07-18T14:08:12;7.57;;;6.88;;
14326;SDS011;7247;53.330;-1.180;2022-07-18T14:10:39;7.55;;;6.82;;
14326;SDS011;7247;53.330;-1.180;2022-07-18T14:13:06;8.80;;;8.00;;
14326;SDS011;7247;53.330;-1.180;2022-07-18T14:15:33;13.23;;;9.20;;
14326;SDS011;7247;53.330;-1.180;2022-07-18T14:18:00;9.15;;;8.45;;
14326;SDS011;7247;53.330;-1.180;2022-07-18T14:20:28;8.45;;;7.65;;
14326;SDS011;7247;53.330;-1.180;2022-07-18T14:22:55;6.22;;;5.70;;
14326;SDS011;7247;53.330;-1.180;2022-07-18T14:25:22;5.30;;;4.90;;
14326;SDS011;7247;53.330;-1.180;2022-07-18T14:27:49;4.85;;;4.53;;
14326;SDS011;7247;53.330;-1.180;2022-07-18T14:30:17;4.43;;;4.03;;
14326;SDS011;7247;53.330;-1.180;2022-07-18T14:32:44;4.10;;;3.70;;
14326;SDS011;7247;53.330;-1.180;2022-07-18T14:35:11;4.00;;;3.70;;
14326;SDS011;7247;53.330;-1.180;2022-07-18T14:37:37;3.30;;;3.10;;
14326;SDS011;7247;53.330;-1.180;2022-07-18T14:40:04;3.83;;;3.53;;
14326;SDS011;7247;53.330;-1.180;2022-07-18T14:42:31;4.13;;;3.63;;
14326;SDS011;7247;53.330;-1.180;2022-07-18T14:44:58;5.13;;;3.53;;
14326;SDS011;7247;53.330;-1.180;2022-07-18T14:47:25;6.00;;;3.42;;
14326;SDS011;7247;53.330;-1.180;2022-07-18T14:49:52;4.00;;;3.60;;
14326;SDS011;7247;53.330;-1.180;2022-07-18T14:52:19;4.15;;;3.80;;
14326;SDS011;7247;53.330;-1.180;2022-07-18T14:54:45;3.38;;;3.08;;
14326;SDS011;7247;53.330;-1.180;2022-07-18T14:57:13;3.85;;;3.55;;
14326;SDS011;7247;53.330;-1.180;2022-07-18T14:59:41;4.25;;;3.40;;
14326;SDS011;7247;53.330;-1.180;2022-07-18T15:02:08;5.03;;;3.40;;
14326;SDS011;7247;53.330;-1.180;2022-07-18T15:04:36;3.83;;;3.30;;
14326;SDS011;7247;53.330;-1.180;2022-07-18T15:07:02;4.53;;;3.63;;
14326;SDS011;7247;53.330;-1.180;2022-07-18T15:09:29;5.15;;;3.60;;
14326;SDS011;7247;53.330;-1.180;2022-07-18T15:11:56;5.60;;;3.80;;
14326;SDS011;7247;53.330;-1.180;2022-07-18T15:14:22;6.00;;;4.05;;